Time;durP1;ratioP1;P1;durP2;ratioP2;P2;SDS_P1;SDS_P2;PMS_P1;PMS_P2;Temp;Humidity;BMP_temperature;BMP_pressure;BME280_temperature;BME280_humidity;BME280_pressure;Samples;Min_cycle;Max_cycle;Signal;HPM_P1;HPM_P2
2022/07/07 00:01:12;;;;;;;14.57;7.70;;;17.50;99.90;;;;;;5053797;28;20037;-66
2022/07/07 00:03:38;;;;;;;11.50;6.30;;;17.60;99.90;;;;;;5053301;28;20083;-67
2022/07/07 00:06:03;;;;;;;10.25;5.68;;;17.60;99.90;;;;;;5048588;28;20085;-66
2022/07/07 00:08:29;;;;;;;10.73;6.18;;;17.50;99.90;;;;;;5053066;28;20046;-64
2022/07/07 00:10:56;;;;;;;10.57;6.35;;;17.50;99.90;;;;;;5058576;28;20041;-64
2022/07/07 00:13:21;;;;;;;11.52;7.25;;;17.50;99.90;;;;;;5054360;28;20048;-65
2022/07/07 00:15:47;;;;;;;17.52;9.18;;;17.40;99.90;;;;;;5054314;28;20033;-65
2022/07/07 00:18:13;;;;;;;12.82;8.60;;;17.40;99.90;;;;;;5050248;28;20044;-62
2022/07/07 00:20:45;;;;;;;12.40;8.02;;;17.40;99.90;;;;;;5048934;28;20419;-64
2022/07/07 00:23:10;;;;;;;13.60;8.43;;;17.40;99.90;;;;;;5031508;28;20049;-64
2022/07/07 00:25:36;;;;;;;11.38;7.13;;;17.40;99.90;;;;;;5035760;28;20465;-64
2022/07/07 00:28:02;;;;;;;15.48;8.20;;;17.40;99.90;;;;;;5044257;28;20482;-64
2022/07/07 00:30:28;;;;;;;12.80;6.47;;;17.40;99.90;;;;;;5031847;28;20049;-64
2022/07/07 00:32:53;;;;;;;10.98;5.75;;;17.30;99.90;;;;;;5022172;28;20045;-64
2022/07/07 00:35:19;;;;;;;8.70;5.30;;;17.40;99.90;;;;;;5036934;28;20028;-64
2022/07/07 00:37:45;;;;;;;11.50;5.75;;;17.40;99.90;;;;;;5031971;28;20029;-64
2022/07/07 00:40:11;;;;;;;9.38;5.85;;;17.40;99.90;;;;;;5035681;28;20046;-64
2022/07/07 00:42:36;;;;;;;12.23;5.95;;;17.40;99.90;;;;;;5034009;28;20052;-64
2022/07/07 00:45:06;;;;;;;12.45;6.93;;;17.40;99.90;;;;;;5032687;28;20050;-65
2022/07/07 00:47:33;;;;;;;9.60;6.32;;;17.50;99.90;;;;;;5031581;28;20048;-65
2022/07/07 00:49:59;;;;;;;12.13;6.25;;;17.50;99.90;;;;;;5035081;28;20056;-64
2022/07/07 00:52:25;;;;;;;11.52;5.50;;;17.50;99.90;;;;;;5018684;28;20037;-64
2022/07/07 00:54:56;;;;;;;9.57;5.72;;;17.40;99.90;;;;;;5020628;28;20049;-64
2022/07/07 00:57:24;;;;;;;12.05;5.20;;;17.40;99.90;;;;;;5035114;28;20039;-64
2022/07/07 00:59:51;;;;;;;13.48;5.38;;;17.40;99.90;;;;;;5036454;28;20483;-64
2022/07/07 01:02:16;;;;;;;12.93;4.82;;;17.40;99.90;;;;;;5037264;28;20045;-64
2022/07/07 01:04:42;;;;;;;8.60;3.28;;;17.50;99.90;;;;;;5039745;28;20044;-65
2022/07/07 01:07:08;;;;;;;10.02;3.15;;;17.40;99.90;;;;;;5038469;28;20374;-64
2022/07/07 01:09:35;;;;;;;6.90;2.58;;;17.50;99.90;;;;;;5021387;28;20052;-64
2022/07/07 01:12:00;;;;;;;7.43;2.20;;;17.50;99.90;;;;;;5030220;28;20041;-65
2022/07/07 01:14:26;;;;;;;7.63;2.58;;;17.50;99.90;;;;;;5036763;28;20401;-63
2022/07/07 01:16:53;;;;;;;6.15;2.35;;;17.50;99.90;;;;;;5037932;28;20116;-64
2022/07/07 01:19:20;;;;;;;6.10;2.38;;;17.50;99.90;;;;;;5033945;28;20025;-64
2022/07/07 01:22:19;;;;;;;5.47;2.13;;;17.50;99.90;;;;;;5037992;28;20068;-64
2022/07/07 01:24:45;;;;;;;5.13;2.10;;;17.40;99.90;;;;;;5056208;28;20036;-64
2022/07/07 01:27:16;;;;;;;7.03;2.58;;;17.20;99.90;;;;;;5032731;28;20041;-63
2022/07/07 01:29:48;;;;;;;6.85;2.90;;;17.00;99.90;;;;;;5037992;28;20079;-63
2022/07/07 01:32:16;;;;;;;5.95;2.70;;;17.00;99.90;;;;;;5032440;28;20081;-63
2022/07/07 01:34:44;;;;;;;6.50;3.22;;;16.80;99.90;;;;;;5036669;28;20167;-62
2022/07/07 01:37:10;;;;;;;6.72;3.00;;;16.70;99.90;;;;;;5050015;28;20083;-62
2022/07/07 01:39:37;;;;;;;7.93;3.60;;;16.70;99.90;;;;;;5050444;28;20141;-63
2022/07/07 01:42:04;;;;;;;8.65;3.08;;;16.60;99.90;;;;;;5051945;28;20033;-62
2022/07/07 01:44:30;;;;;;;7.68;3.10;;;16.60;99.90;;;;;;5011565;28;20049;-62
2022/07/07 01:46:56;;;;;;;8.30;3.70;;;16.60;99.90;;;;;;5033818;28;20041;-62
2022/07/07 01:49:22;;;;;;;6.97;3.40;;;16.60;99.90;;;;;;5047750;28;20446;-62
2022/07/07 01:51:47;;;;;;;5.85;3.75;;;16.60;99.90;;;;;;5051417;28;20036;-62
2022/07/07 01:54:13;;;;;;;10.30;3.90;;;16.50;99.90;;;;;;5050136;28;20458;-62
2022/07/07 01:56:38;;;;;;;6.03;3.72;;;16.50;99.90;;;;;;5053597;28;20037;-62
2022/07/07 01:59:04;;;;;;;7.75;3.60;;;16.50;99.90;;;;;;5034529;28;20041;-62
2022/07/07 02:01:30;;;;;;;6.65;3.92;;;16.50;99.90;;;;;;5052143;28;20494;-62
2022/07/07 02:03:55;;;;;;;8.02;3.88;;;16.50;99.90;;;;;;5033427;28;20532;-62
2022/07/07 02:06:21;;;;;;;6.65;3.58;;;16.50;99.90;;;;;;5032508;28;20033;-61
2022/07/07 02:08:47;;;;;;;7.65;3.53;;;16.50;99.90;;;;;;5034832;28;20507;-62
2022/07/07 02:11:14;;;;;;;7.90;3.88;;;16.50;99.90;;;;;;5036778;28;20164;-62
2022/07/07 02:13:49;;;;;;;5.75;3.80;;;16.50;99.90;;;;;;5048677;28;20045;-62
2022/07/07 02:16:17;;;;;;;7.35;3.65;;;16.40;99.90;;;;;;5051825;28;20482;-62
2022/07/07 02:18:44;;;;;;;7.05;3.70;;;16.40;99.90;;;;;;5031727;28;20048;-62
2022/07/07 02:21:12;;;;;;;6.93;3.80;;;16.40;99.90;;;;;;5031141;28;20044;-63
2022/07/07 02:23:43;;;;;;;6.30;3.20;;;16.40;99.90;;;;;;5034603;28;20051;-63
2022/07/07 02:26:08;;;;;;;8.13;4.10;;;16.40;99.90;;;;;;5033406;28;20415;-63
2022/07/07 02:28:34;;;;;;;7.88;4.05;;;16.50;99.90;;;;;;5025806;28;20573;-64
2022/07/07 02:31:00;;;;;;;10.70;3.90;;;16.40;99.90;;;;;;5058460;28;20441;-62
2022/07/07 02:33:26;;;;;;;11.98;4.65;;;16.50;99.90;;;;;;5035712;28;20048;-62
2022/07/07 02:35:53;;;;;;;9.63;3.83;;;16.50;99.90;;;;;;5030749;28;20059;-63
2022/07/07 02:38:19;;;;;;;6.70;3.72;;;16.60;99.90;;;;;;5039418;28;20121;-63
2022/07/07 02:40:45;;;;;;;6.72;3.60;;;16.60;99.90;;;;;;5035218;28;20076;-62
2022/07/07 02:43:14;;;;;;;9.18;3.72;;;16.50;99.90;;;;;;5029122;28;20033;-63
2022/07/07 02:45:44;;;;;;;10.88;4.10;;;16.50;99.90;;;;;;5033701;28;20462;-62
2022/07/07 02:48:13;;;;;;;10.30;4.28;;;16.50;99.90;;;;;;5034421;28;20454;-64
2022/07/07 02:50:39;;;;;;;10.43;4.07;;;16.60;99.90;;;;;;5049376;28;20480;-63
2022/07/07 02:53:06;;;;;;;6.78;3.13;;;16.60;99.90;;;;;;5030221;28;20079;-63
2022/07/07 02:55:32;;;;;;;11.23;3.72;;;16.50;99.90;;;;;;5030442;28;20039;-63
2022/07/07 02:57:59;;;;;;;8.07;3.55;;;16.60;99.90;;;;;;5030396;28;20118;-63
2022/07/07 03:00:25;;;;;;;8.98;3.42;;;16.60;99.90;;;;;;5034314;28;20044;-63
2022/07/07 03:02:52;;;;;;;12.30;3.63;;;16.60;99.90;;;;;;5034753;28;20033;-62
2022/07/07 03:05:18;;;;;;;8.18;3.33;;;16.60;99.90;;;;;;5052287;28;20033;-63
2022/07/07 03:07:44;;;;;;;7.38;3.40;;;16.60;99.90;;;;;;5028356;28;20029;-63
2022/07/07 03:10:10;;;;;;;10.43;3.60;;;16.60;99.90;;;;;;5029962;28;20029;-64
2022/07/07 03:12:36;;;;;;;9.48;3.67;;;16.70;99.90;;;;;;5028888;28;20052;-63
2022/07/07 03:15:02;;;;;;;7.97;3.60;;;16.70;99.90;;;;;;5014127;28;20041;-63
2022/07/07 03:17:28;;;;;;;10.43;3.20;;;16.70;99.90;;;;;;5030689;28;20363;-63
2022/07/07 03:19:53;;;;;;;7.40;3.17;;;16.60;99.90;;;;;;5030488;28;20104;-63
2022/07/07 03:22:19;;;;;;;6.63;2.88;;;16.60;99.90;;;;;;5046819;28;20048;-63
2022/07/07 03:24:47;;;;;;;8.85;2.97;;;16.60;99.90;;;;;;5030594;28;20049;-63
2022/07/07 03:27:13;;;;;;;7.80;2.25;;;16.50;99.90;;;;;;5028516;28;20033;-63
2022/07/07 03:29:39;;;;;;;9.23;2.30;;;16.60;99.90;;;;;;5046681;28;20070;-63
2022/07/07 03:32:05;;;;;;;7.68;1.98;;;16.50;99.90;;;;;;5027513;28;20040;-64
2022/07/07 03:34:31;;;;;;;6.57;2.03;;;16.50;99.90;;;;;;5030812;28;20111;-63
2022/07/07 03:36:57;;;;;;;8.70;2.05;;;16.50;99.90;;;;;;5029631;28;20735;-64
2022/07/07 03:39:22;;;;;;;8.85;2.33;;;16.40;99.90;;;;;;5028000;28;20068;-63
2022/07/07 03:41:48;;;;;;;8.52;2.22;;;16.40;99.90;;;;;;5027930;28;20440;-63
2022/07/07 03:44:14;;;;;;;7.03;1.90;;;16.40;99.90;;;;;;5026479;28;20087;-63
2022/07/07 03:46:40;;;;;;;6.07;1.95;;;16.40;99.90;;;;;;5031585;28;20513;-63
2022/07/07 03:49:05;;;;;;;5.50;1.80;;;16.30;99.90;;;;;;5032088;28;20121;-63
2022/07/07 03:51:31;;;;;;;9.02;2.88;;;16.30;99.90;;;;;;5046686;28;20079;-63
2022/07/07 03:53:57;;;;;;;9.13;2.33;;;16.30;99.90;;;;;;5028352;28;20052;-64
2022/07/07 03:56:22;;;;;;;9.20;2.28;;;16.30;99.90;;;;;;5029402;28;20033;-63
2022/07/07 03:58:48;;;;;;;8.55;2.20;;;16.30;99.90;;;;;;5034511;28;20037;-64
2022/07/07 04:01:14;;;;;;;6.75;2.00;;;16.30;99.90;;;;;;5028441;28;20086;-63
2022/07/07 04:03:40;;;;;;;6.30;1.80;;;16.30;99.90;;;;;;5028423;28;20386;-64
2022/07/07 04:06:06;;;;;;;8.63;2.17;;;16.30;99.90;;;;;;5015101;28;20145;-63
2022/07/07 04:08:31;;;;;;;8.88;1.90;;;16.30;99.90;;;;;;5028391;28;20091;-63
2022/07/07 04:10:57;;;;;;;10.23;2.33;;;16.20;99.90;;;;;;5048214;28;20121;-64
2022/07/07 04:13:23;;;;;;;7.85;2.17;;;16.20;99.90;;;;;;5032065;28;20079;-62
2022/07/07 04:15:48;;;;;;;10.70;1.80;;;16.30;99.90;;;;;;5030166;28;20493;-63
2022/07/07 04:18:14;;;;;;;9.13;1.70;;;16.30;99.90;;;;;;5029060;28;20033;-64
2022/07/07 04:20:40;;;;;;;11.90;2.17;;;16.20;99.90;;;;;;5030804;28;20033;-63
2022/07/07 04:23:05;;;;;;;3.92;1.08;;;16.10;99.90;;;;;;5045841;28;20053;-62
2022/07/07 04:25:31;;;;;;;7.65;1.48;;;16.10;99.90;;;;;;5031573;28;20052;-64
2022/07/07 04:27:57;;;;;;;6.45;1.67;;;15.90;99.90;;;;;;5047084;28;20095;-63
2022/07/07 04:30:23;;;;;;;4.70;1.40;;;15.90;99.90;;;;;;5026870;28;20094;-63
2022/07/07 04:32:48;;;;;;;5.72;1.50;;;15.90;99.90;;;;;;5028096;28;20068;-63
2022/07/07 04:35:14;;;;;;;6.95;1.40;;;15.90;99.90;;;;;;5027474;28;20052;-63
2022/07/07 04:37:40;;;;;;;7.88;1.50;;;15.90;99.90;;;;;;5028675;28;20492;-63
2022/07/07 04:40:07;;;;;;;6.60;1.30;;;15.80;99.90;;;;;;5040362;28;20029;-63
2022/07/07 04:42:33;;;;;;;8.45;1.60;;;15.90;99.90;;;;;;5029243;28;20040;-63
2022/07/07 04:44:58;;;;;;;7.28;1.58;;;15.80;99.90;;;;;;5030393;28;20037;-63
2022/07/07 04:47:24;;;;;;;8.43;1.77;;;15.90;99.90;;;;;;5026166;28;20057;-64
2022/07/07 04:49:54;;;;;;;7.65;1.90;;;15.80;99.90;;;;;;5027018;28;20045;-63
2022/07/07 04:52:19;;;;;;;6.05;1.52;;;15.90;99.90;;;;;;5032464;28;20056;-63
2022/07/07 04:54:45;;;;;;;8.45;1.98;;;15.90;99.90;;;;;;5031675;28;20137;-64
2022/07/07 04:57:11;;;;;;;8.23;1.73;;;15.90;99.90;;;;;;5033373;28;20139;-64
2022/07/07 04:59:37;;;;;;;7.85;1.95;;;15.90;99.90;;;;;;5029000;28;20045;-63
2022/07/07 05:02:03;;;;;;;7.72;1.85;;;15.90;99.90;;;;;;5026383;28;20064;-63
2022/07/07 05:04:29;;;;;;;9.32;2.03;;;15.90;99.90;;;;;;5017878;28;20052;-63
2022/07/07 05:06:54;;;;;;;8.38;2.25;;;15.90;99.90;;;;;;5020584;28;20037;-64
2022/07/07 05:09:20;;;;;;;8.45;2.17;;;15.90;99.90;;;;;;5024963;28;20048;-63
2022/07/07 05:11:46;;;;;;;9.20;2.10;;;15.90;99.90;;;;;;5020806;28;20232;-63
2022/07/07 05:14:11;;;;;;;8.55;2.08;;;15.80;99.90;;;;;;5034294;28;20056;-63
2022/07/07 05:16:37;;;;;;;6.63;1.75;;;15.90;99.90;;;;;;5025323;28;20068;-66
2022/07/07 05:19:03;;;;;;;6.97;1.95;;;15.90;99.90;;;;;;5020808;28;20040;-63
2022/07/07 05:21:29;;;;;;;10.75;1.95;;;15.90;99.90;;;;;;5028940;28;20691;-64
2022/07/07 05:23:55;;;;;;;8.68;2.00;;;15.80;99.90;;;;;;5026061;28;20130;-64
2022/07/07 05:26:20;;;;;;;9.63;2.00;;;15.90;99.90;;;;;;5032151;28;20072;-64
2022/07/07 05:28:46;;;;;;;9.90;2.38;;;16.00;99.90;;;;;;5034130;28;20421;-63
2022/07/07 05:31:14;;;;;;;7.93;1.95;;;16.00;99.90;;;;;;5030913;28;20517;-64
2022/07/07 05:33:40;;;;;;;9.57;2.47;;;16.00;99.90;;;;;;5047765;28;20076;-63
2022/07/07 05:36:06;;;;;;;10.73;1.95;;;16.10;99.90;;;;;;5031683;28;20381;-64
2022/07/07 05:38:33;;;;;;;9.02;1.98;;;16.10;99.90;;;;;;5029352;28;20033;-65
2022/07/07 05:41:00;;;;;;;6.30;2.13;;;16.10;99.90;;;;;;5036699;28;20080;-63
2022/07/07 05:43:28;;;;;;;7.07;1.70;;;16.10;99.90;;;;;;5030660;28;20117;-64
2022/07/07 05:45:54;;;;;;;10.18;2.08;;;16.20;99.90;;;;;;5043388;28;20053;-64
2022/07/07 05:48:19;;;;;;;9.55;1.98;;;16.30;99.90;;;;;;5038574;28;20112;-62
2022/07/07 05:50:45;;;;;;;12.77;2.30;;;16.20;99.90;;;;;;5035168;28;20132;-67
2022/07/07 05:53:12;;;;;;;8.85;2.10;;;16.30;99.90;;;;;;5031034;28;20041;-67
2022/07/07 05:55:37;;;;;;;9.40;1.90;;;16.40;99.90;;;;;;5017186;28;20033;-66
2022/07/07 05:58:03;;;;;;;6.95;1.60;;;16.70;99.90;;;;;;5001769;28;20117;-64
2022/07/07 06:00:29;;;;;;;7.13;2.47;;;16.90;99.90;;;;;;5020101;28;20037;-64
2022/07/07 06:02:55;;;;;;;8.23;1.83;;;17.00;99.90;;;;;;5022795;28;20125;-65
2022/07/07 06:05:22;;;;;;;7.53;2.00;;;17.00;99.90;;;;;;5025113;28;20049;-64
2022/07/07 06:07:48;;;;;;;7.85;2.13;;;17.10;99.90;;;;;;5024456;28;20060;-65
2022/07/07 06:10:14;;;;;;;8.35;1.75;;;17.10;99.90;;;;;;5024064;28;20474;-65
2022/07/07 06:12:41;;;;;;;8.80;1.80;;;17.20;99.90;;;;;;5009732;28;20339;-65
2022/07/07 06:15:07;;;;;;;9.40;1.67;;;17.30;99.90;;;;;;5037347;28;20383;-66
2022/07/07 06:17:33;;;;;;;16.38;4.85;;;17.50;99.90;;;;;;5023277;28;20033;-65
2022/07/07 06:19:59;;;;;;;11.38;2.03;;;17.90;99.90;;;;;;5033043;28;20176;-69
2022/07/07 06:22:28;;;;;;;9.75;1.98;;;18.10;99.90;;;;;;5047808;28;20056;-68
2022/07/07 06:24:54;;;;;;;8.32;1.80;;;18.40;99.90;;;;;;5028785;28;20045;-67
2022/07/07 06:27:20;;;;;;;8.23;2.10;;;18.60;99.90;;;;;;5032487;28;20045;-67
2022/07/07 06:29:47;;;;;;;5.88;1.70;;;18.80;99.90;;;;;;5032293;28;20040;-68
2022/07/07 06:32:16;;;;;;;9.57;3.08;;;18.60;99.90;;;;;;5027055;28;20041;-66
2022/07/07 06:34:42;;;;;;;6.47;1.60;;;18.70;99.90;;;;;;5029605;28;20037;-66
2022/07/07 06:37:08;;;;;;;8.15;1.85;;;18.60;99.90;;;;;;5029624;28;20036;-64
2022/07/07 06:39:34;;;;;;;6.78;1.90;;;18.20;99.90;;;;;;5030495;28;20029;-64
2022/07/07 06:41:59;;;;;;;8.75;2.03;;;17.90;99.90;;;;;;5035210;28;20101;-64
2022/07/07 06:44:30;;;;;;;4.13;1.25;;;17.40;99.90;;;;;;5015640;28;20037;-69
2022/07/07 06:46:57;;;;;;;8.18;1.50;;;17.30;99.90;;;;;;5030939;28;20041;-64
2022/07/07 06:49:24;;;;;;;9.60;1.70;;;17.10;99.90;;;;;;5031926;28;20102;-65
2022/07/07 06:51:53;;;;;;;10.18;1.70;;;17.10;99.90;;;;;;5052372;28;20045;-66
2022/07/07 06:54:19;;;;;;;8.23;1.60;;;17.10;99.90;;;;;;5046579;28;20036;-65
2022/07/07 06:56:45;;;;;;;7.10;1.52;;;17.00;99.90;;;;;;5025135;28;20113;-65
2022/07/07 06:59:11;;;;;;;7.15;1.15;;;16.90;99.90;;;;;;5033205;28;20137;-66
2022/07/07 07:01:37;;;;;;;2.25;0.82;;;16.70;99.90;;;;;;5031507;28;20473;-65
2022/07/07 07:04:03;;;;;;;3.95;1.15;;;16.50;99.90;;;;;;5026358;28;20045;-65
2022/07/07 07:06:29;;;;;;;2.17;0.80;;;16.40;99.90;;;;;;5044848;28;20049;-65
2022/07/07 07:08:56;;;;;;;3.45;0.98;;;16.30;99.90;;;;;;5030185;28;20041;-66
2022/07/07 07:11:22;;;;;;;3.53;1.00;;;16.40;99.90;;;;;;5048485;28;20455;-66
2022/07/07 07:13:49;;;;;;;1.92;0.73;;;16.80;99.90;;;;;;5029904;28;20484;-65
2022/07/07 07:16:18;;;;;;;3.38;1.00;;;17.10;99.90;;;;;;5025065;28;20430;-65
2022/07/07 07:18:44;;;;;;;6.80;1.33;;;17.60;99.90;;;;;;5027678;28;20047;-65
2022/07/07 07:21:12;;;;;;;5.63;1.20;;;17.70;99.90;;;;;;5042401;28;20470;-65
2022/07/07 07:23:38;;;;;;;5.95;1.30;;;17.60;99.90;;;;;;5050008;28;20055;-65
2022/07/07 07:26:05;;;;;;;4.25;1.30;;;17.50;99.90;;;;;;5033061;28;20041;-65
2022/07/07 07:28:31;;;;;;;8.50;1.35;;;17.20;99.90;;;;;;5027733;28;20068;-64
2022/07/07 07:30:57;;;;;;;4.78;1.70;;;17.10;99.90;;;;;;5019685;28;20733;-64
2022/07/07 07:33:22;;;;;;;5.50;1.40;;;17.20;99.90;;;;;;5029410;28;20047;-64
2022/07/07 07:35:49;;;;;;;7.97;1.60;;;17.30;99.90;;;;;;5021555;28;20069;-64
2022/07/07 07:38:14;;;;;;;4.78;1.40;;;17.40;99.90;;;;;;5032710;28;20033;-64
2022/07/07 07:40:45;;;;;;;7.20;1.63;;;17.60;99.90;;;;;;5048702;28;20043;-65
2022/07/07 07:43:11;;;;;;;4.93;1.35;;;17.80;99.90;;;;;;5030800;28;20044;-66
2022/07/07 07:45:37;;;;;;;9.23;1.50;;;17.70;99.90;;;;;;5029556;28;20037;-65
2022/07/07 07:48:04;;;;;;;5.07;1.10;;;17.50;99.90;;;;;;5027707;28;20072;-64
2022/07/07 07:50:31;;;;;;;2.13;0.65;;;17.30;99.90;;;;;;5027332;28;20464;-63
2022/07/07 07:52:58;;;;;;;1.88;0.80;;;17.10;99.90;;;;;;5041861;28;20052;-63
2022/07/07 07:55:24;;;;;;;2.35;0.70;;;17.00;99.90;;;;;;5047012;28;20362;-63
2022/07/07 07:57:51;;;;;;;4.55;1.17;;;16.90;99.90;;;;;;5047810;28;20063;-63
2022/07/07 08:00:19;;;;;;;0.50;0.50;;;16.90;99.90;;;;;;5027942;28;20041;-63
2022/07/07 08:02:47;;;;;;;5.65;1.17;;;17.10;99.90;;;;;;5026586;28;20124;-62
2022/07/07 08:05:14;;;;;;;4.60;1.20;;;17.30;99.90;;;;;;5016650;28;20041;-63
2022/07/07 08:07:41;;;;;;;5.50;1.40;;;17.40;99.90;;;;;;5030155;28;20037;-63
2022/07/07 08:10:08;;;;;;;6.53;1.73;;;17.60;99.90;;;;;;5007829;28;20048;-63
2022/07/07 08:12:34;;;;;;;7.88;1.80;;;17.90;99.90;;;;;;5026276;28;20365;-61
2022/07/07 08:15:00;;;;;;;6.07;1.67;;;17.90;99.90;;;;;;5023325;28;20075;-62
2022/07/07 08:17:26;;;;;;;5.85;1.27;;;18.10;99.90;;;;;;5027645;28;20378;-62
2022/07/07 08:19:52;;;;;;;8.85;1.45;;;18.20;99.90;;;;;;5047767;28;20064;-62
2022/07/07 08:22:17;;;;;;;5.30;1.50;;;18.20;99.90;;;;;;5017675;28;20045;-61
2022/07/07 08:24:43;;;;;;;7.97;1.40;;;18.20;99.90;;;;;;5009961;28;20355;-63
2022/07/07 08:27:12;;;;;;;4.85;1.70;;;18.10;99.90;;;;;;5030811;28;20041;-62
2022/07/07 08:29:38;;;;;;;7.28;1.63;;;17.80;99.90;;;;;;5012601;28;20344;-62
2022/07/07 08:32:11;;;;;;;6.93;1.58;;;17.50;99.90;;;;;;5027635;28;20095;-64
2022/07/07 08:34:37;;;;;;;4.32;1.38;;;17.20;99.90;;;;;;5013180;28;20164;-64
2022/07/07 08:37:06;;;;;;;7.00;1.08;;;17.10;99.90;;;;;;5001418;28;20052;-62
2022/07/07 08:39:32;;;;;;;4.35;1.20;;;17.00;99.90;;;;;;5011704;28;20351;-64
2022/07/07 08:41:58;;;;;;;4.40;1.40;;;17.00;99.90;;;;;;5014363;28;20049;-64
2022/07/07 08:44:25;;;;;;;4.30;1.17;;;17.20;99.90;;;;;;5013548;28;20054;-63
2022/07/07 08:46:51;;;;;;;3.63;1.08;;;17.30;99.90;;;;;;5014227;28;20135;-63
2022/07/07 08:49:16;;;;;;;5.47;1.25;;;17.40;99.90;;;;;;5010248;28;20038;-62
2022/07/07 08:51:43;;;;;;;5.28;1.50;;;17.70;99.90;;;;;;5027225;28;20120;-63
2022/07/07 08:54:11;;;;;;;8.38;1.75;;;17.90;99.90;;;;;;5009768;28;20170;-63
2022/07/07 08:56:40;;;;;;;4.20;1.30;;;18.10;99.90;;;;;;5031052;28;20069;-63
2022/07/07 08:59:07;;;;;;;5.60;1.85;;;18.20;99.90;;;;;;5000208;28;20071;-63
2022/07/07 09:01:33;;;;;;;5.95;1.67;;;18.40;99.90;;;;;;5015498;28;20033;-62
2022/07/07 09:04:00;;;;;;;5.57;1.30;;;18.50;99.90;;;;;;5029549;28;20049;-63
2022/07/07 09:06:26;;;;;;;8.20;1.60;;;18.40;99.90;;;;;;5008656;28;20045;-62
2022/07/07 09:08:52;;;;;;;7.55;1.70;;;18.30;99.90;;;;;;5011940;28;20045;-63
2022/07/07 09:11:29;;;;;;;7.35;1.63;;;18.10;99.90;;;;;;4997648;28;20084;-63
2022/07/07 09:14:17;;;;;;;6.82;1.50;;;18.00;99.90;;;;;;5013766;28;20580;-64
2022/07/07 09:16:43;;;;;;;6.22;1.75;;;17.80;99.90;;;;;;5019757;28;20034;-62
2022/07/07 09:19:22;;;;;;;8.90;1.77;;;17.80;99.90;;;;;;5013603;28;20510;-62
2022/07/07 09:21:49;;;;;;;4.60;1.55;;;18.00;99.90;;;;;;5012319;28;20056;-64
2022/07/07 09:24:15;;;;;;;5.53;1.33;;;18.10;99.90;;;;;;5029995;28;20399;-64
2022/07/07 09:26:43;;;;;;;8.00;2.20;;;18.10;99.90;;;;;;5029536;28;20500;-63
2022/07/07 09:29:13;;;;;;;7.32;1.70;;;18.00;99.90;;;;;;4982564;28;20045;-63
2022/07/07 09:31:53;;;;;;;8.20;1.83;;;18.00;99.90;;;;;;5029717;28;20048;-62
2022/07/07 09:34:23;;;;;;;6.28;1.50;;;18.00;99.90;;;;;;5010451;28;20033;-63
2022/07/07 09:39:51;;;;;;;7.00;1.63;;;18.20;99.90;;;;;;5027692;28;20071;-62
2022/07/07 09:42:18;;;;;;;7.50;1.92;;;18.30;99.90;;;;;;5007957;28;20042;-63
2022/07/07 09:44:56;;;;;;;7.65;1.67;;;18.40;99.90;;;;;;5009918;28;20071;-64
2022/07/07 09:47:23;;;;;;;6.88;1.65;;;18.40;99.90;;;;;;5011590;28;20247;-64
2022/07/07 09:50:13;;;;;;;8.43;2.08;;;18.30;99.90;;;;;;5013092;28;20060;-64
2022/07/07 09:52:41;;;;;;;6.60;1.70;;;18.40;99.90;;;;;;5020330;28;20895;-63
2022/07/07 09:55:09;;;;;;;5.85;1.73;;;18.60;99.90;;;;;;5001378;28;20282;-66
2022/07/07 09:57:36;;;;;;;9.70;2.33;;;18.80;99.90;;;;;;5027010;28;20052;-64
2022/07/07 10:00:03;;;;;;;6.03;1.45;;;18.90;99.90;;;;;;5012834;28;20077;-65
2022/07/07 10:02:30;;;;;;;6.05;1.70;;;19.20;99.90;;;;;;4996535;28;20037;-65
2022/07/07 10:04:59;;;;;;;5.15;1.55;;;19.40;99.90;;;;;;5027798;28;20362;-65
2022/07/07 10:07:30;;;;;;;3.55;1.27;;;19.40;99.90;;;;;;5004130;28;20482;-65
2022/07/07 10:10:00;;;;;;;4.07;1.40;;;19.20;99.90;;;;;;5013273;28;20102;-65
2022/07/07 10:12:28;;;;;;;4.03;1.40;;;19.10;99.90;;;;;;5012068;28;20056;-65
2022/07/07 10:15:03;;;;;;;7.30;1.48;;;19.10;99.90;;;;;;5009699;28;20108;-65
2022/07/07 10:17:30;;;;;;;5.43;1.27;;;19.20;99.90;;;;;;5010954;28;20106;-65
2022/07/07 10:19:58;;;;;;;4.10;1.35;;;19.20;99.90;;;;;;5013712;28;20037;-65
2022/07/07 10:22:27;;;;;;;5.53;1.92;;;18.90;99.90;;;;;;5028525;28;20088;-65
2022/07/07 10:24:59;;;;;;;4.65;1.10;;;18.50;99.90;;;;;;5011478;28;20049;-65
2022/07/07 10:27:27;;;;;;;3.80;1.20;;;18.30;99.90;;;;;;5009312;28;20042;-65
2022/07/07 10:29:55;;;;;;;4.95;1.27;;;18.10;99.90;;;;;;5007669;28;20056;-65
2022/07/07 10:32:29;;;;;;;4.00;1.20;;;18.00;99.90;;;;;;5025922;28;20042;-65
2022/07/07 10:34:57;;;;;;;2.10;1.00;;;18.00;99.90;;;;;;5025976;28;20049;-64
2022/07/07 10:37:25;;;;;;;2.38;0.93;;;18.10;99.90;;;;;;5028561;28;20064;-66
2022/07/07 10:39:54;;;;;;;2.10;1.13;;;18.10;99.90;;;;;;5011934;28;20113;-65
2022/07/07 10:42:30;;;;;;;4.53;1.48;;;18.20;99.90;;;;;;5026689;28;20041;-65
2022/07/07 10:44:57;;;;;;;4.75;1.10;;;18.30;99.90;;;;;;5009328;28;20482;-65
2022/07/07 10:47:23;;;;;;;3.15;1.00;;;18.60;99.90;;;;;;5007540;28;20042;-66
2022/07/07 10:49:51;;;;;;;3.30;1.20;;;18.80;99.90;;;;;;5009058;28;20034;-65
2022/07/07 10:52:19;;;;;;;3.92;1.13;;;18.50;99.90;;;;;;5012089;28;20041;-65
2022/07/07 10:54:49;;;;;;;3.58;1.10;;;18.20;99.90;;;;;;5011506;28;20045;-66
2022/07/07 10:57:21;;;;;;;2.95;0.98;;;17.90;99.90;;;;;;5020734;28;20030;-65
2022/07/07 11:00:05;;;;;;;3.08;1.00;;;17.70;99.90;;;;;;5013281;28;20041;-65
2022/07/07 11:02:38;;;;;;;;;;;17.60;99.90;;;;;;5019282;28;20037;-66
2022/07/07 11:05:29;;;;;;;5.47;1.40;;;17.70;99.90;;;;;;4997559;28;19921;-65
2022/07/07 11:08:03;;;;;;;6.35;1.50;;;17.70;99.90;;;;;;5008273;28;20371;-65
2022/07/07 11:10:49;;;;;;;6.63;1.65;;;17.70;99.90;;;;;;4997858;28;20059;-66
2022/07/07 11:13:21;;;;;;;7.72;1.77;;;17.80;99.90;;;;;;5012074;28;20037;-63
2022/07/07 11:16:08;;;;;;;9.95;1.73;;;17.90;99.90;;;;;;5008404;28;20033;-65
2022/07/07 11:18:34;;;;;;;7.07;1.83;;;18.20;99.90;;;;;;5008053;28;20466;-64
2022/07/07 11:21:04;;;;;;;11.45;2.22;;;18.30;99.90;;;;;;5010416;28;20075;-65
2022/07/07 11:23:52;;;;;;;10.13;2.67;;;18.60;99.90;;;;;;5010499;28;20049;-66
2022/07/07 11:26:22;;;;;;;12.45;2.20;;;18.70;99.90;;;;;;5009549;28;20041;-66
2022/07/07 11:28:52;;;;;;;6.50;1.90;;;18.80;99.90;;;;;;5006821;28;20172;-65
2022/07/07 11:31:18;;;;;;;8.32;2.00;;;18.90;99.90;;;;;;4995762;28;20041;-65
2022/07/07 11:33:52;;;;;;;12.38;1.90;;;19.00;99.90;;;;;;5010203;28;20107;-67
2022/07/07 11:36:26;;;;;;;12.23;2.50;;;18.90;99.90;;;;;;5009402;28;20045;-67
2022/07/07 11:38:58;;;;;;;13.93;2.75;;;18.50;99.90;;;;;;5009804;28;20034;-67
2022/07/07 11:41:41;;;;;;;12.07;2.80;;;18.20;99.90;;;;;;4994300;28;20029;-66
2022/07/07 11:44:06;;;;;;;13.65;2.75;;;18.00;99.90;;;;;;5010162;28;20052;-66
2022/07/07 11:46:32;;;;;;;13.65;2.70;;;17.90;99.90;;;;;;5010937;28;20362;-68
2022/07/07 11:48:58;;;;;;;13.75;2.65;;;17.90;99.90;;;;;;5008064;28;20542;-66
2022/07/07 11:51:30;;;;;;;11.32;2.50;;;18.10;99.90;;;;;;4994826;28;20040;-67
2022/07/07 11:53:58;;;;;;;14.75;3.78;;;18.10;99.90;;;;;;5018076;28;20061;-67
2022/07/07 11:56:31;;;;;;;8.73;2.75;;;18.40;99.90;;;;;;5008766;28;20048;-67
2022/07/07 11:58:58;;;;;;;9.95;2.92;;;18.60;99.90;;;;;;5011163;28;20397;-67
2022/07/07 12:01:24;;;;;;;8.98;2.20;;;18.60;99.90;;;;;;5026555;28;20029;-67
2022/07/07 12:03:49;;;;;;;9.88;2.15;;;18.80;99.90;;;;;;5008579;28;20072;-67
2022/07/07 12:06:15;;;;;;;10.98;2.40;;;18.90;99.90;;;;;;4995317;28;20100;-68
2022/07/07 12:08:41;;;;;;;8.25;2.42;;;19.10;99.90;;;;;;5009243;28;20108;-68
2022/07/07 12:11:08;;;;;;;6.85;2.05;;;19.20;99.90;;;;;;5009620;28;20394;-66
2022/07/07 12:13:33;;;;;;;13.68;2.33;;;19.50;99.90;;;;;;5028576;28;20121;-66
2022/07/07 12:16:03;;;;;;;6.22;1.77;;;19.40;99.90;;;;;;4994305;28;20128;-67
2022/07/07 12:18:39;;;;;;;10.52;1.92;;;19.50;99.90;;;;;;4995986;28;20055;-67
2022/07/07 12:21:09;;;;;;;8.65;1.80;;;19.40;99.90;;;;;;4998519;28;20359;-66
2022/07/07 12:23:40;;;;;;;4.93;1.80;;;19.50;99.90;;;;;;5026339;28;20051;-66
2022/07/07 12:26:17;;;;;;;8.77;2.50;;;19.80;99.90;;;;;;5024261;28;20116;-66
2022/07/07 12:28:43;;;;;;;9.50;1.90;;;19.90;99.90;;;;;;5024640;28;20051;-66
2022/07/07 12:31:18;;;;;;;9.07;1.85;;;19.70;99.90;;;;;;5024425;28;20053;-67
2022/07/07 12:33:44;;;;;;;10.38;1.92;;;19.60;99.90;;;;;;5014330;28;20351;-67
2022/07/07 12:36:26;;;;;;;5.28;1.60;;;19.60;99.90;;;;;;5028922;28;20040;-68
2022/07/07 12:38:57;;;;;;;10.65;2.03;;;19.70;99.90;;;;;;5013583;28;20048;-67
2022/07/07 12:41:28;;;;;;;6.78;1.70;;;19.70;99.90;;;;;;5026313;28;20037;-67
2022/07/07 12:44:09;;;;;;;7.03;1.52;;;19.60;99.90;;;;;;5028630;28;20055;-67
2022/07/07 12:46:36;;;;;;;6.47;1.88;;;19.60;99.90;;;;;;5032911;28;20119;-67
2022/07/07 12:49:03;;;;;;;10.60;2.65;;;19.60;99.90;;;;;;5027927;28;20435;-67
2022/07/07 12:51:30;;;;;;;7.78;2.00;;;19.70;99.90;;;;;;5048818;28;20053;-64